createdAt,value
2024-03-08T00:00:24.518Z,64.72
2024-03-08T00:01:31.376Z,63.42
2024-03-08T00:02:38.538Z,62.38
2024-03-08T00:03:45.512Z,63.03
2024-03-08T00:04:52.424Z,65.30
2024-03-08T00:05:59.397Z,66.67
2024-03-08T00:07:06.248Z,76.22
2024-03-08T00:08:13.114Z,84.55
2024-03-08T00:09:19.988Z,76.79
2024-03-08T00:10:28.371Z,64.85
2024-03-08T00:11:35.535Z,64.14
2024-03-08T00:12:42.443Z,63.75
2024-03-08T00:13:49.308Z,68.53
2024-03-08T00:14:56.217Z,75.48
2024-03-08T00:16:03.159Z,86.33
2024-03-08T00:17:10.079Z,78.08
2024-03-08T00:18:17.059Z,64.87
2024-03-08T00:19:23.936Z,62.60
2024-03-08T00:20:30.903Z,63.35
2024-03-08T00:21:37.802Z,63.47
2024-03-08T00:22:44.674Z,63.80
2024-03-08T00:23:51.589Z,61.48
2024-03-08T00:24:58.450Z,62.51
2024-03-08T00:26:05.366Z,60.88
2024-03-08T00:27:12.268Z,61.80
2024-03-08T00:28:19.128Z,60.70
2024-03-08T00:29:26.073Z,61.17
2024-03-08T00:30:32.915Z,61.22
2024-03-08T00:31:39.848Z,59.63
2024-03-08T00:32:46.776Z,61.69
2024-03-08T00:33:53.905Z,62.10
2024-03-08T00:35:00.854Z,63.30
2024-03-08T00:36:07.760Z,64.02
2024-03-08T00:37:14.626Z,65.50
2024-03-08T00:38:21.523Z,65.17
2024-03-08T00:39:28.376Z,62.81
2024-03-08T00:40:35.253Z,62.44
2024-03-08T00:41:42.155Z,62.60
2024-03-08T00:42:49.019Z,62.52
2024-03-08T00:43:55.956Z,62.41
2024-03-08T00:45:02.991Z,62.59
2024-03-08T00:46:10.005Z,63.30
2024-03-08T00:47:16.902Z,61.44
2024-03-08T00:48:23.837Z,61.60
2024-03-08T00:49:30.734Z,61.02
2024-03-08T00:50:37.657Z,61.36
2024-03-08T00:51:44.557Z,62.23
2024-03-08T00:52:51.434Z,63.41
2024-03-08T00:53:58.364Z,64.80
2024-03-08T00:55:05.269Z,70.08
2024-03-08T00:56:12.129Z,76.66
2024-03-08T00:57:19.011Z,76.24
2024-03-08T00:58:25.857Z,79.14
2024-03-08T00:59:32.757Z,81.14
2024-03-08T01:00:39.794Z,86.12
2024-03-08T01:01:46.772Z,76.60
2024-03-08T01:02:53.709Z,76.48
2024-03-08T01:04:00.630Z,84.69
2024-03-08T01:05:07.482Z,76.29
2024-03-08T01:06:14.437Z,77.01
2024-03-08T01:07:21.301Z,70.80
2024-03-08T01:08:28.264Z,64.03
2024-03-08T01:09:35.116Z,65.14
2024-03-08T01:10:42.034Z,62.52
2024-03-08T01:11:48.946Z,62.22
2024-03-08T01:12:55.867Z,70.96
2024-03-08T01:14:02.757Z,68.70
2024-03-08T01:15:09.893Z,69.38
2024-03-08T01:16:17.112Z,68.59
2024-03-08T01:17:24.119Z,68.15
2024-03-08T01:18:31.133Z,67.78
2024-03-08T01:19:38.136Z,68.06
2024-03-08T01:20:45.130Z,66.15
2024-03-08T01:21:52.067Z,66.21
2024-03-08T01:22:59.009Z,65.43
2024-03-08T01:24:06.019Z,64.78
2024-03-08T01:25:12.941Z,65.11
2024-03-08T01:26:19.785Z,64.53
2024-03-08T01:27:26.676Z,68.74
2024-03-08T01:28:33.517Z,67.52
2024-03-08T01:29:40.393Z,63.65
2024-03-08T01:30:47.265Z,63.07
2024-03-08T01:31:54.150Z,62.39
2024-03-08T01:33:01.064Z,62.22
2024-03-08T01:34:07.999Z,62.10
2024-03-08T01:35:14.846Z,63.02
2024-03-08T01:36:21.702Z,63.01
2024-03-08T01:37:28.623Z,63.42
2024-03-08T01:38:35.489Z,63.20
2024-03-08T01:39:42.458Z,62.06
2024-03-08T01:40:49.295Z,61.74
2024-03-08T01:41:56.239Z,60.11
2024-03-08T01:43:03.168Z,60.78
2024-03-08T01:44:10.012Z,64.93
2024-03-08T01:45:16.959Z,62.78
2024-03-08T01:46:23.866Z,63.09
2024-03-08T01:47:30.883Z,64.16
2024-03-08T01:48:37.972Z,63.25
2024-03-08T01:49:44.941Z,63.36
2024-03-08T01:50:51.845Z,64.17
2024-03-08T01:51:58.700Z,65.42
2024-03-08T01:53:05.583Z,66.22
2024-03-08T01:54:12.590Z,67.06
2024-03-08T01:55:19.451Z,68.02
2024-03-08T01:56:26.646Z,67.99
2024-03-08T01:57:33.623Z,68.41
2024-03-08T01:58:40.469Z,70.89
2024-03-08T01:59:47.356Z,71.02
2024-03-08T02:00:54.202Z,72.73
2024-03-08T02:02:01.097Z,72.15
2024-03-08T02:03:08.040Z,64.74
2024-03-08T02:04:14.941Z,63.10
2024-03-08T02:05:21.810Z,62.41
2024-03-08T02:06:28.710Z,62.19
2024-03-08T02:07:35.579Z,62.92
2024-03-08T02:08:42.499Z,65.95
2024-03-08T02:09:49.447Z,60.84
2024-03-08T02:10:56.314Z,61.91
2024-03-08T02:12:03.190Z,63.75
2024-03-08T02:13:10.103Z,62.23
2024-03-08T02:14:16.960Z,66.03
2024-03-08T02:15:23.804Z,67.00
2024-03-08T02:16:30.669Z,69.63
2024-03-08T02:17:37.649Z,77.54
2024-03-08T02:18:44.708Z,78.05
2024-03-08T02:19:51.664Z,75.68
2024-03-08T02:20:58.550Z,74.81
2024-03-08T02:22:05.823Z,74.66
2024-03-08T02:23:12.897Z,74.08
2024-03-08T02:24:19.807Z,73.33
2024-03-08T02:25:26.669Z,68.14
2024-03-08T02:26:33.567Z,64.36
2024-03-08T02:27:40.420Z,63.63
2024-03-08T02:28:47.270Z,62.46
2024-03-08T02:29:54.154Z,61.95
2024-03-08T02:31:01.104Z,62.00
2024-03-08T02:32:08.014Z,61.91
2024-03-08T02:33:14.891Z,62.17
2024-03-08T02:34:22.088Z,62.18
2024-03-08T02:35:28.988Z,61.84
2024-03-08T02:36:35.851Z,62.03
2024-03-08T02:37:42.703Z,63.25
2024-03-08T02:38:49.652Z,61.76
2024-03-08T02:39:56.637Z,61.69
2024-03-08T02:41:03.544Z,61.54
2024-03-08T02:42:10.508Z,62.52
2024-03-08T02:43:17.463Z,61.78
2024-03-08T02:44:24.324Z,62.65
2024-03-08T02:45:31.176Z,62.50
2024-03-08T02:46:38.066Z,63.79
2024-03-08T02:47:45.003Z,61.54
2024-03-08T02:48:51.931Z,63.20
2024-03-08T02:49:58.874Z,64.84
2024-03-08T02:51:05.752Z,66.01
2024-03-08T02:52:12.654Z,66.46
2024-03-08T02:53:19.488Z,65.75
2024-03-08T02:54:26.372Z,65.28
2024-03-08T02:55:33.247Z,65.42
2024-03-08T02:56:40.154Z,61.52
2024-03-08T02:57:47.013Z,61.96
2024-03-08T02:58:53.964Z,61.55
2024-03-08T03:00:00.958Z,60.92
2024-03-08T03:01:07.965Z,60.39
2024-03-08T03:02:14.830Z,61.69
2024-03-08T03:03:21.750Z,63.04
2024-03-08T03:04:28.610Z,63.45
2024-03-08T03:05:35.567Z,63.19
2024-03-08T03:06:42.461Z,68.79
2024-03-08T03:07:49.302Z,75.58
2024-03-08T03:08:56.293Z,77.29
2024-03-08T03:10:03.119Z,79.82
2024-03-08T03:11:10.028Z,79.04
2024-03-08T03:12:16.920Z,74.72
2024-03-08T03:13:23.802Z,75.88
2024-03-08T03:14:30.728Z,77.55
2024-03-08T03:15:37.713Z,83.46
2024-03-08T03:16:44.761Z,65.52
2024-03-08T03:17:51.696Z,65.50
2024-03-08T03:18:58.522Z,66.01
2024-03-08T03:20:05.426Z,62.88
2024-03-08T03:21:12.405Z,64.82
2024-03-08T03:22:19.332Z,63.71
2024-03-08T03:23:26.180Z,61.33
2024-03-08T03:24:33.069Z,67.32
2024-03-08T03:25:40.305Z,68.39
2024-03-08T03:26:47.326Z,68.79
2024-03-08T03:27:54.241Z,68.56
2024-03-08T03:29:01.083Z,67.90
2024-03-08T03:30:08.002Z,66.11
2024-03-08T03:31:14.935Z,72.06
2024-03-08T03:32:21.864Z,68.06
2024-03-08T03:33:28.804Z,66.32
2024-03-08T03:34:35.632Z,65.85
2024-03-08T03:35:42.585Z,64.91
2024-03-08T03:36:49.561Z,65.25
2024-03-08T03:37:56.408Z,64.50
2024-03-08T03:39:03.286Z,63.34
2024-03-08T03:40:10.166Z,63.12
2024-03-08T03:41:17.023Z,63.11
2024-03-08T03:42:23.939Z,63.14
2024-03-08T03:43:30.811Z,62.57
2024-03-08T03:44:37.741Z,62.41
2024-03-08T03:45:44.618Z,62.06
2024-03-08T03:46:51.471Z,62.42
2024-03-08T03:47:58.395Z,62.78
2024-03-08T03:49:05.283Z,62.74
2024-03-08T03:50:12.122Z,63.60
2024-03-08T03:51:19.016Z,62.31
2024-03-08T03:52:25.867Z,61.65
2024-03-08T03:53:32.797Z,61.93
2024-03-08T03:54:39.670Z,60.54
2024-03-08T03:55:46.516Z,62.17
2024-03-08T03:56:53.429Z,64.45
2024-03-08T03:58:00.715Z,62.19
2024-03-08T03:59:07.741Z,64.49
2024-03-08T04:00:14.633Z,63.14
2024-03-08T04:01:21.576Z,62.16
2024-03-08T04:02:28.444Z,62.78
2024-03-08T04:03:35.270Z,63.09
2024-03-08T04:04:42.188Z,62.99
2024-03-08T04:05:49.134Z,63.21
2024-03-08T04:06:56.039Z,63.47
2024-03-08T04:08:02.950Z,63.69
2024-03-08T04:09:09.893Z,63.88
2024-03-08T04:10:16.846Z,64.36
2024-03-08T04:11:23.689Z,65.39
2024-03-08T04:12:30.581Z,65.02
2024-03-08T04:13:37.491Z,64.97
2024-03-08T04:14:44.391Z,65.34
2024-03-08T04:15:51.269Z,65.63
2024-03-08T04:16:58.150Z,66.36
2024-03-08T04:18:05.098Z,71.50
2024-03-08T04:19:12.025Z,59.39
2024-03-08T04:20:19.091Z,60.60
2024-03-08T04:21:26.024Z,69.58
2024-03-08T04:22:32.836Z,70.96
2024-03-08T04:23:39.715Z,72.20
2024-03-08T04:24:46.576Z,72.14
2024-03-08T04:25:53.462Z,72.40
2024-03-08T04:27:00.553Z,72.55
2024-03-08T04:28:07.493Z,72.87
2024-03-08T04:29:14.339Z,70.94
2024-03-08T04:30:21.250Z,68.58
2024-03-08T04:31:28.065Z,67.06
2024-03-08T04:32:35.032Z,64.12
2024-03-08T04:33:42.028Z,62.87
2024-03-08T04:34:48.879Z,62.78
2024-03-08T04:35:55.836Z,65.24
2024-03-08T04:37:02.698Z,65.38
2024-03-08T04:38:09.592Z,67.57
2024-03-08T04:39:16.542Z,71.54
2024-03-08T04:40:23.499Z,76.78
2024-03-08T04:41:30.397Z,76.24
2024-03-08T04:42:37.226Z,89.35
2024-03-08T04:43:44.129Z,92.18
2024-03-08T04:44:51.023Z,88.48
2024-03-08T04:45:57.878Z,76.25
2024-03-08T04:47:04.742Z,78.94
2024-03-08T04:48:11.729Z,81.63
2024-03-08T04:49:18.718Z,67.37
2024-03-08T04:50:25.955Z,66.75
2024-03-08T04:51:32.838Z,66.62
2024-03-08T04:52:39.734Z,65.47
2024-03-08T04:53:46.587Z,65.84
2024-03-08T04:54:53.478Z,68.98
2024-03-08T04:56:00.374Z,68.21
2024-03-08T04:57:09.419Z,68.41
2024-03-08T04:58:16.835Z,68.37
2024-03-08T04:59:23.738Z,68.57
2024-03-08T05:00:30.685Z,68.91
2024-03-08T05:01:37.598Z,67.81
2024-03-08T05:02:44.523Z,67.53
2024-03-08T05:03:51.398Z,67.89
2024-03-08T05:04:58.296Z,66.05
2024-03-08T05:06:05.155Z,65.70
2024-03-08T05:07:12.079Z,66.63
2024-03-08T05:08:18.947Z,66.72
2024-03-08T05:09:25.842Z,66.56
2024-03-08T05:10:32.722Z,67.17
2024-03-08T05:11:39.596Z,66.07
2024-03-08T05:12:46.406Z,66.71
2024-03-08T05:13:53.275Z,67.13
2024-03-08T05:15:00.221Z,67.09
2024-03-08T05:16:07.105Z,65.58
2024-03-08T05:17:13.963Z,65.30
2024-03-08T05:18:20.907Z,65.96
2024-03-08T05:19:29.212Z,65.87
2024-03-08T05:20:37.243Z,66.09
2024-03-08T05:21:44.100Z,65.11
2024-03-08T05:22:50.983Z,66.09
2024-03-08T05:23:57.884Z,65.88
2024-03-08T05:25:04.760Z,66.27
2024-03-08T05:26:11.646Z,66.90
2024-03-08T05:27:18.639Z,67.50
2024-03-08T05:28:25.535Z,69.22
2024-03-08T05:29:32.457Z,65.44
2024-03-08T05:30:39.341Z,69.14
2024-03-08T05:31:46.263Z,67.89
2024-03-08T05:32:53.226Z,67.70
2024-03-08T05:34:00.209Z,69.08
2024-03-08T05:35:07.106Z,68.93
2024-03-08T05:36:13.987Z,68.53
2024-03-08T05:37:20.861Z,69.24
2024-03-08T05:38:27.756Z,69.56
2024-03-08T05:39:34.642Z,69.38
2024-03-08T05:40:41.501Z,69.66
2024-03-08T05:41:48.580Z,70.03
2024-03-08T05:42:55.681Z,69.42
2024-03-08T05:44:02.560Z,68.71
2024-03-08T05:45:09.498Z,69.59
2024-03-08T05:46:16.320Z,70.25
2024-03-08T05:47:23.257Z,70.08
2024-03-08T05:48:30.193Z,69.50
2024-03-08T05:49:37.134Z,70.61
2024-03-08T05:50:43.996Z,71.44
2024-03-08T05:51:50.866Z,70.61
2024-03-08T05:52:57.792Z,70.86
2024-03-08T05:54:04.741Z,71.26
2024-03-08T05:55:11.673Z,71.14
2024-03-08T05:56:18.535Z,70.71
2024-03-08T05:57:25.428Z,71.65
2024-03-08T05:58:32.323Z,71.21
2024-03-08T05:59:39.280Z,71.34
2024-03-08T06:00:46.165Z,70.14
2024-03-08T06:01:53.024Z,70.27
2024-03-08T06:02:59.926Z,69.95
2024-03-08T06:04:06.849Z,69.65
2024-03-08T06:05:13.755Z,69.72
2024-03-08T06:06:20.700Z,70.27
2024-03-08T06:07:27.533Z,69.91
2024-03-08T06:08:34.427Z,71.06
2024-03-08T06:09:41.326Z,70.87
2024-03-08T06:10:48.303Z,72.36
2024-03-08T06:11:55.751Z,72.94
2024-03-08T06:13:02.878Z,73.26
2024-03-08T06:14:09.756Z,73.05
2024-03-08T06:15:16.784Z,73.30
2024-03-08T06:16:23.822Z,73.23
2024-03-08T06:17:30.729Z,73.78
2024-03-08T06:18:37.807Z,69.79
2024-03-08T06:19:44.703Z,69.24
2024-03-08T06:20:53.714Z,69.75
2024-03-08T06:22:01.682Z,69.94
2024-03-08T06:23:08.536Z,69.95
2024-03-08T06:24:15.446Z,70.16
2024-03-08T06:25:22.378Z,71.06
2024-03-08T06:26:30.713Z,74.78
2024-03-08T06:27:38.246Z,68.69
2024-03-08T06:28:45.173Z,67.27
2024-03-08T06:29:52.131Z,67.27
2024-03-08T06:30:58.948Z,68.38
2024-03-08T06:32:05.895Z,71.49
2024-03-08T06:33:12.851Z,71.54
2024-03-08T06:34:19.739Z,68.34
2024-03-08T06:35:26.576Z,68.22
2024-03-08T06:36:33.452Z,67.89
2024-03-08T06:37:40.398Z,68.79
2024-03-08T06:38:47.312Z,68.64
2024-03-08T06:39:54.274Z,68.57
2024-03-08T06:41:01.219Z,68.23
2024-03-08T06:42:08.211Z,69.67
2024-03-08T06:43:15.076Z,68.89
2024-03-08T06:44:22.044Z,71.61
2024-03-08T06:45:28.854Z,71.88
2024-03-08T06:46:35.776Z,72.07
2024-03-08T06:47:42.668Z,71.78
2024-03-08T06:48:49.945Z,73.43
2024-03-08T06:49:56.918Z,71.60
2024-03-08T06:51:03.776Z,71.45
2024-03-08T06:52:10.622Z,71.01
2024-03-08T06:53:19.599Z,67.80
2024-03-08T06:54:28.070Z,67.98
2024-03-08T06:55:34.959Z,67.48
2024-03-08T06:56:41.828Z,70.81
2024-03-08T06:57:48.722Z,77.17
2024-03-08T06:58:55.608Z,77.25
2024-03-08T07:00:02.639Z,80.25
2024-03-08T07:01:09.786Z,84.39
2024-03-08T07:02:16.621Z,85.76
2024-03-08T07:03:23.571Z,83.98
2024-03-08T07:04:30.557Z,74.53
2024-03-08T07:05:37.435Z,67.50
2024-03-08T07:06:44.316Z,69.30
2024-03-08T07:07:51.163Z,69.83
2024-03-08T07:08:58.100Z,68.26
2024-03-08T07:10:04.947Z,67.85
2024-03-08T07:11:11.937Z,66.90
2024-03-08T07:12:18.821Z,67.45
2024-03-08T07:13:25.721Z,67.24
2024-03-08T07:14:32.680Z,70.11
2024-03-08T07:15:39.566Z,70.79
2024-03-08T07:16:46.424Z,69.21
2024-03-08T07:17:53.371Z,69.24
2024-03-08T07:19:00.500Z,69.34
2024-03-08T07:20:07.426Z,69.26
2024-03-08T07:21:14.278Z,68.78
2024-03-08T07:22:21.259Z,68.45
2024-03-08T07:23:28.149Z,68.81
2024-03-08T07:24:35.002Z,69.05
2024-03-08T07:25:41.848Z,68.69
2024-03-08T07:26:48.693Z,68.68
2024-03-08T07:27:55.608Z,68.75
2024-03-08T07:29:02.496Z,68.42
2024-03-08T07:30:09.428Z,67.86
2024-03-08T07:31:16.300Z,66.96
2024-03-08T07:32:23.140Z,66.71
2024-03-08T07:33:30.110Z,67.03
2024-03-08T07:34:37.000Z,67.68
2024-03-08T07:35:43.885Z,69.60
2024-03-08T07:36:50.768Z,69.20
2024-03-08T07:37:57.604Z,68.38
2024-03-08T07:39:05.523Z,70.90
2024-03-08T07:40:14.161Z,68.20
2024-03-08T07:41:21.017Z,68.30
2024-03-08T07:42:27.854Z,68.87
2024-03-08T07:43:34.733Z,68.99
2024-03-08T07:44:41.581Z,72.43
2024-03-08T07:45:48.489Z,66.19
2024-03-08T07:46:58.152Z,67.01
2024-03-08T07:48:05.421Z,67.91
2024-03-08T07:49:12.421Z,68.13
2024-03-08T07:50:19.293Z,68.44
2024-03-08T07:51:26.261Z,69.32
2024-03-08T07:52:33.112Z,69.69
2024-03-08T07:53:39.952Z,69.40
2024-03-08T07:54:46.885Z,68.93
2024-03-08T07:55:53.858Z,68.41
2024-03-08T07:57:00.835Z,67.51
2024-03-08T07:58:07.793Z,68.20
2024-03-08T07:59:14.623Z,68.26
2024-03-08T08:00:21.510Z,68.11
2024-03-08T08:01:28.495Z,67.97
2024-03-08T08:02:37.841Z,68.43
2024-03-08T08:03:45.992Z,68.39
2024-03-08T08:04:52.928Z,68.81
2024-03-08T08:05:59.759Z,68.23
2024-03-08T08:07:06.645Z,67.62
2024-03-08T08:08:13.549Z,67.93
2024-03-08T08:09:20.368Z,67.94
2024-03-08T08:10:27.226Z,67.13
2024-03-08T08:11:34.217Z,68.08
2024-03-08T08:12:41.129Z,67.71
2024-03-08T08:13:48.116Z,67.23
2024-03-08T08:14:55.009Z,68.12
2024-03-08T08:16:01.919Z,67.28
2024-03-08T08:17:08.744Z,67.43
2024-03-08T08:18:15.645Z,67.31
2024-03-08T08:19:22.569Z,66.67
2024-03-08T08:20:29.432Z,66.98
2024-03-08T08:21:36.328Z,67.66
2024-03-08T08:22:43.270Z,70.25
2024-03-08T08:23:50.136Z,71.84
2024-03-08T08:24:57.043Z,66.00
2024-03-08T08:26:03.960Z,65.87
2024-03-08T08:27:10.806Z,68.39
2024-03-08T08:28:17.731Z,70.67
2024-03-08T08:29:24.686Z,67.20
2024-03-08T08:30:31.558Z,67.04
2024-03-08T08:31:38.435Z,67.57
2024-03-08T08:32:45.336Z,66.96
2024-03-08T08:33:52.248Z,67.04
2024-03-08T08:34:59.112Z,67.14
2024-03-08T08:36:06.027Z,67.56
2024-03-08T08:37:12.901Z,67.62
2024-03-08T08:38:19.760Z,67.56
2024-03-08T08:39:26.612Z,67.14
2024-03-08T08:40:33.575Z,66.94
2024-03-08T08:41:40.463Z,67.41
2024-03-08T08:42:50.035Z,67.20
2024-03-08T08:44:03.715Z,67.34
2024-03-08T08:45:15.102Z,66.38
2024-03-08T08:46:21.387Z,66.73
2024-03-08T08:47:28.524Z,66.93
2024-03-08T08:48:35.403Z,66.81
2024-03-08T08:49:42.252Z,70.55
2024-03-08T08:50:49.140Z,66.38
2024-03-08T08:51:59.020Z,67.52
2024-03-08T08:53:06.174Z,67.84
2024-03-08T08:54:14.614Z,67.95
2024-03-08T08:55:22.942Z,68.27
2024-03-08T08:56:29.890Z,67.98
2024-03-08T08:57:37.047Z,68.07
2024-03-08T08:58:44.077Z,69.20
2024-03-08T08:59:50.928Z,68.95
2024-03-08T09:00:57.807Z,66.36
2024-03-08T09:02:04.771Z,67.24
2024-03-08T09:03:11.759Z,67.57
2024-03-08T09:04:18.695Z,68.39
2024-03-08T09:05:25.587Z,67.46
2024-03-08T09:06:32.436Z,66.35
2024-03-08T09:07:39.386Z,66.53
2024-03-08T09:08:46.335Z,70.49
2024-03-08T09:09:53.258Z,77.22
2024-03-08T09:11:00.210Z,70.16
2024-03-08T09:12:07.200Z,68.51
2024-03-08T09:13:18.647Z,67.66
2024-03-08T09:14:25.842Z,67.01
2024-03-08T09:15:32.787Z,66.95
2024-03-08T09:16:39.690Z,67.71
2024-03-08T09:17:46.582Z,66.31
2024-03-08T09:18:53.425Z,66.36
2024-03-08T09:20:00.341Z,66.46
2024-03-08T09:21:07.199Z,67.19
2024-03-08T09:22:14.027Z,67.04
2024-03-08T09:23:20.913Z,70.59
2024-03-08T09:24:27.701Z,72.95
2024-03-08T09:25:34.586Z,71.36
2024-03-08T09:26:41.396Z,71.26
2024-03-08T09:27:48.305Z,71.61
2024-03-08T09:28:55.178Z,69.44
2024-03-08T09:30:02.006Z,68.11
2024-03-08T09:31:08.920Z,67.92
2024-03-08T09:32:15.812Z,67.97
2024-03-08T09:33:22.648Z,68.10
2024-03-08T09:34:37.053Z,67.99
2024-03-08T09:35:41.185Z,66.84
2024-03-08T09:36:48.300Z,66.52
2024-03-08T09:37:55.190Z,66.47
2024-03-08T09:39:02.027Z,68.29
2024-03-08T09:40:08.826Z,68.76
2024-03-08T09:41:15.705Z,69.32
2024-03-08T09:42:22.520Z,76.27
2024-03-08T09:43:29.408Z,77.48
2024-03-08T09:44:36.254Z,79.67
2024-03-08T09:45:43.152Z,79.91
2024-03-08T09:46:50.058Z,82.47
2024-03-08T09:47:56.960Z,77.52
2024-03-08T09:49:03.885Z,76.91
2024-03-08T09:50:10.718Z,74.58
2024-03-08T09:51:17.577Z,69.12
2024-03-08T09:52:24.475Z,70.45
2024-03-08T09:53:31.373Z,71.44
2024-03-08T09:54:38.226Z,68.24
2024-03-08T09:55:45.081Z,69.67
2024-03-08T09:56:51.970Z,70.08
2024-03-08T09:57:58.788Z,69.02
2024-03-08T09:59:05.731Z,71.25
2024-03-08T10:00:12.566Z,70.89
2024-03-08T10:01:19.493Z,70.77
2024-03-08T10:02:26.492Z,70.88
2024-03-08T10:03:33.399Z,70.34
2024-03-08T10:04:40.301Z,69.59
2024-03-08T10:05:47.136Z,69.13
2024-03-08T10:06:54.019Z,69.83
2024-03-08T10:08:00.889Z,68.55
2024-03-08T10:09:07.772Z,68.02
2024-03-08T10:10:14.707Z,67.90
2024-03-08T10:11:21.652Z,68.39
2024-03-08T10:12:28.560Z,67.72
2024-03-08T10:13:35.449Z,68.88
2024-03-08T10:14:42.279Z,68.67
2024-03-08T10:15:49.205Z,68.49
2024-03-08T10:16:56.233Z,67.02
2024-03-08T10:18:03.218Z,67.30
2024-03-08T10:19:10.014Z,68.16
2024-03-08T10:20:16.916Z,67.92
2024-03-08T10:21:23.846Z,68.44
2024-03-08T10:22:30.752Z,69.91
2024-03-08T10:23:37.686Z,68.27
2024-03-08T10:24:44.576Z,67.99
2024-03-08T10:25:51.513Z,67.67
2024-03-08T10:26:58.423Z,66.56
2024-03-08T10:28:05.244Z,66.33
2024-03-08T10:29:12.144Z,66.81
2024-03-08T10:30:18.967Z,66.67
2024-03-08T10:31:25.872Z,65.49
2024-03-08T10:32:32.782Z,67.05
2024-03-08T10:33:39.619Z,69.42
2024-03-08T10:34:46.544Z,73.04
2024-03-08T10:35:53.390Z,70.08
2024-03-08T10:37:00.260Z,70.25
2024-03-08T10:38:07.172Z,66.69
2024-03-08T10:39:14.109Z,66.71
2024-03-08T10:40:21.200Z,69.57
2024-03-08T10:41:28.125Z,68.65
2024-03-08T10:42:38.180Z,67.32
2024-03-08T10:43:46.022Z,67.93
2024-03-08T10:44:52.930Z,67.47
2024-03-08T10:45:59.808Z,68.19
2024-03-08T10:47:07.029Z,67.21
2024-03-08T10:48:14.050Z,67.14
2024-03-08T10:49:20.908Z,66.49
2024-03-08T10:50:27.764Z,67.07
2024-03-08T10:51:34.612Z,66.73
2024-03-08T10:52:41.620Z,67.77
2024-03-08T10:53:48.503Z,66.00
2024-03-08T10:54:55.413Z,67.68
2024-03-08T10:56:02.326Z,71.17
2024-03-08T10:57:09.165Z,72.14
2024-03-08T10:58:16.051Z,72.36
2024-03-08T10:59:22.896Z,72.55
2024-03-08T11:00:29.787Z,72.71
2024-03-08T11:01:36.772Z,72.61
2024-03-08T11:02:43.655Z,72.66
2024-03-08T11:03:50.633Z,71.80
2024-03-08T11:04:57.515Z,71.27
2024-03-08T11:06:04.592Z,69.31
2024-03-08T11:07:11.411Z,68.51
2024-03-08T11:08:18.304Z,68.27
2024-03-08T11:09:25.198Z,72.24
2024-03-08T11:10:32.142Z,75.22
2024-03-08T11:11:39.122Z,76.36
2024-03-08T11:12:45.969Z,76.26
2024-03-08T11:13:52.878Z,81.15
2024-03-08T11:14:59.709Z,81.24
2024-03-08T11:16:06.586Z,80.17
2024-03-08T11:17:14.850Z,78.09
2024-03-08T11:18:22.902Z,69.59
2024-03-08T11:19:29.835Z,68.94
2024-03-08T11:20:36.784Z,66.12
2024-03-08T11:21:43.688Z,65.96
2024-03-08T11:22:50.663Z,69.52
2024-03-08T11:23:57.482Z,67.65
2024-03-08T11:25:04.376Z,70.71
2024-03-08T11:26:11.248Z,70.79
2024-03-08T11:27:18.107Z,70.55
2024-03-08T11:28:25.006Z,72.96
2024-03-08T11:29:31.893Z,70.25
2024-03-08T11:30:38.745Z,68.74
2024-03-08T11:31:45.675Z,68.49
2024-03-08T11:32:52.613Z,65.64
2024-03-08T11:33:59.492Z,65.76
2024-03-08T11:35:06.410Z,66.03
2024-03-08T11:36:13.262Z,66.27
2024-03-08T11:37:20.196Z,67.82
2024-03-08T11:38:27.129Z,66.58
2024-03-08T11:39:33.994Z,67.19
2024-03-08T11:40:40.868Z,67.26
2024-03-08T11:41:47.811Z,67.56
2024-03-08T11:42:54.644Z,67.44
2024-03-08T11:44:01.541Z,67.44
2024-03-08T11:45:08.391Z,67.59
2024-03-08T11:46:15.329Z,66.96
2024-03-08T11:47:22.318Z,65.93
2024-03-08T11:48:29.132Z,66.70
2024-03-08T11:49:36.109Z,66.66
2024-03-08T11:50:42.959Z,68.23
2024-03-08T11:51:49.826Z,68.19
2024-03-08T11:52:56.808Z,68.33
2024-03-08T11:54:03.747Z,66.16
2024-03-08T11:55:10.619Z,66.44
2024-03-08T11:56:17.569Z,66.61
2024-03-08T11:57:24.372Z,66.12
2024-03-08T11:58:31.254Z,66.22
2024-03-08T11:59:38.110Z,66.58
2024-03-08T12:00:44.999Z,77.87
2024-03-08T12:01:51.933Z,67.69
2024-03-08T12:02:58.854Z,66.66
2024-03-08T12:04:05.699Z,67.82
2024-03-08T12:05:12.566Z,67.39
2024-03-08T12:06:19.415Z,68.43
2024-03-08T12:07:26.370Z,67.11
2024-03-08T12:08:33.180Z,68.25
2024-03-08T12:09:40.060Z,66.57
2024-03-08T12:10:46.980Z,68.52
2024-03-08T12:11:53.905Z,68.15
2024-03-08T12:13:00.895Z,65.96
2024-03-08T12:14:07.854Z,66.33
2024-03-08T12:15:14.767Z,66.73
2024-03-08T12:16:21.673Z,66.41
2024-03-08T12:17:28.492Z,66.57
2024-03-08T12:18:35.388Z,66.32
2024-03-08T12:19:42.268Z,66.62
2024-03-08T12:20:49.131Z,66.04
2024-03-08T12:21:55.971Z,67.97
2024-03-08T12:23:02.877Z,66.78
2024-03-08T12:24:10.113Z,67.49
2024-03-08T12:25:17.309Z,67.44
2024-03-08T12:26:24.199Z,66.59
2024-03-08T12:27:31.059Z,66.99
2024-03-08T12:28:37.896Z,67.16
2024-03-08T12:29:44.812Z,65.81
2024-03-08T12:30:51.664Z,65.49
2024-03-08T12:31:58.600Z,66.66
2024-03-08T12:33:05.704Z,67.27
2024-03-08T12:34:12.654Z,68.95
2024-03-08T12:35:19.618Z,67.27
2024-03-08T12:36:26.570Z,69.03
2024-03-08T12:37:33.463Z,69.51
2024-03-08T12:38:40.450Z,70.50
2024-03-08T12:39:47.584Z,70.08
2024-03-08T12:40:54.599Z,69.71
2024-03-08T12:42:01.661Z,70.03
2024-03-08T12:43:08.571Z,70.17
2024-03-08T12:44:15.447Z,70.30
2024-03-08T12:45:22.318Z,68.27
2024-03-08T12:46:29.252Z,67.83
2024-03-08T12:47:36.120Z,67.48
2024-03-08T12:48:42.938Z,67.10
2024-03-08T12:49:49.872Z,67.55
2024-03-08T12:50:56.696Z,66.79
2024-03-08T12:52:03.640Z,67.00
2024-03-08T12:53:10.643Z,66.46
2024-03-08T12:54:17.611Z,66.58
2024-03-08T12:55:24.572Z,66.31
2024-03-08T12:56:31.530Z,65.98
2024-03-08T12:57:38.418Z,65.70
2024-03-08T12:58:45.386Z,65.51
2024-03-08T12:59:52.215Z,65.83
2024-03-08T13:00:59.088Z,64.21
2024-03-08T13:02:05.986Z,64.67
2024-03-08T13:03:12.988Z,64.70
2024-03-08T13:04:19.866Z,65.91
2024-03-08T13:05:26.706Z,66.60
2024-03-08T13:06:33.614Z,66.92
2024-03-08T13:07:40.468Z,66.09
2024-03-08T13:08:47.369Z,66.96
2024-03-08T13:09:54.218Z,66.08
2024-03-08T13:11:01.235Z,66.13
2024-03-08T13:12:08.164Z,66.70
2024-03-08T13:13:15.111Z,66.18
2024-03-08T13:14:21.960Z,65.02
2024-03-08T13:15:28.807Z,64.88
2024-03-08T13:16:35.731Z,65.20
2024-03-08T13:17:42.620Z,65.41
2024-03-08T13:18:53.136Z,65.14
2024-03-08T13:20:01.371Z,65.60
2024-03-08T13:21:08.316Z,65.74
2024-03-08T13:22:15.295Z,66.33
2024-03-08T13:23:22.195Z,65.69
2024-03-08T13:24:29.074Z,66.16
2024-03-08T13:25:36.051Z,65.76
2024-03-08T13:26:43.159Z,66.18
2024-03-08T13:27:50.053Z,66.13
2024-03-08T13:28:56.973Z,65.68
2024-03-08T13:30:03.856Z,65.77
2024-03-08T13:31:10.718Z,65.61
2024-03-08T13:32:17.578Z,65.16
2024-03-08T13:33:24.440Z,65.01
2024-03-08T13:34:31.356Z,69.29
2024-03-08T13:35:38.212Z,72.17
2024-03-08T13:36:45.700Z,71.81
2024-03-08T13:37:52.908Z,72.64
2024-03-08T13:38:59.799Z,72.92
2024-03-08T13:40:06.670Z,72.13
2024-03-08T13:41:13.647Z,70.18
2024-03-08T13:42:20.606Z,69.53
2024-03-08T13:43:27.556Z,67.72
2024-03-08T13:44:34.447Z,65.66
2024-03-08T13:45:41.319Z,66.70
2024-03-08T13:46:49.674Z,66.49
2024-03-08T13:47:58.860Z,66.90
2024-03-08T13:49:05.712Z,67.03
2024-03-08T13:50:12.538Z,66.86
2024-03-08T13:51:19.452Z,66.74
2024-03-08T13:52:26.521Z,66.54
2024-03-08T13:53:33.536Z,66.93
2024-03-08T13:54:40.403Z,66.72
2024-03-08T13:55:47.322Z,66.44
2024-03-08T13:56:54.237Z,65.14
2024-03-08T13:58:01.124Z,65.16
2024-03-08T13:59:08.052Z,65.58
2024-03-08T14:00:14.888Z,65.84
2024-03-08T14:01:21.834Z,65.33
2024-03-08T14:02:28.679Z,65.89
2024-03-08T14:03:35.544Z,66.46
2024-03-08T14:04:42.419Z,65.97
2024-03-08T14:05:49.318Z,65.32
2024-03-08T14:06:57.318Z,65.14
2024-03-08T14:08:05.055Z,65.24
2024-03-08T14:09:11.976Z,65.16
2024-03-08T14:10:18.980Z,65.28
2024-03-08T14:11:25.964Z,66.69
2024-03-08T14:12:32.925Z,65.89
2024-03-08T14:13:39.802Z,65.23
2024-03-08T14:14:46.599Z,66.04
2024-03-08T14:15:53.543Z,68.84
2024-03-08T14:17:00.476Z,66.32
2024-03-08T14:18:07.514Z,68.70
2024-03-08T14:19:14.373Z,70.30
2024-03-08T14:20:21.252Z,67.07
2024-03-08T14:21:28.178Z,67.30
2024-03-08T14:22:35.044Z,67.46